Coulee, North Dakota
Current Conditions -  °F | °C
As of 4:55 PM on Wednesday 26 Nov 2014 (Local Time) from K08D Reporting Station
Clear Clear  
Wind Chill: -24°   Ceiling: Unl
Heat Index: -18°   Visibility: 10mi
Dew Point: -19°   Wind: 5mph
Humidity: 92%   Direction: 80°E
Pressure: 30.37"   Gusts: NA
Location:  48.4598°N, 101.907°W
Report Text: K08D 262255Z AUTO 08004KT 10SM CLR M18/M19 A3037 RMK AO2
Loading
Personal Weather Stations






























Interactive Weather Map New forecast layout! Learn more

10-Day Weather Forecast

Advertisements
Track Severe Weather on mobile